sensor_id;sensor_type;location;lat;lon;timestamp;pressure;altitude;pressure_sealevel;temperature;humidity
8294;BME280;4185;41.506;24.938;2022-12-18T00:01:24;94088.81;;;11.38;100.00
8294;BME280;4185;41.506;24.938;2022-12-18T00:03:52;94080.47;;;11.41;100.00
8294;BME280;4185;41.506;24.938;2022-12-18T00:06:22;94070.13;;;11.45;100.00
8294;BME280;4185;41.506;24.938;2022-12-18T00:08:49;94073.88;;;11.48;100.00
8294;BME280;4185;41.506;24.938;2022-12-18T00:11:18;94084.94;;;11.44;100.00
8294;BME280;4185;41.506;24.938;2022-12-18T00:13:46;94096.22;;;11.37;100.00
8294;BME280;4185;41.506;24.938;2022-12-18T00:16:16;94096.34;;;11.28;100.00
8294;BME280;4185;41.506;24.938;2022-12-18T00:18:45;94094.59;;;11.25;100.00
8294;BME280;4185;41.506;24.938;2022-12-18T00:21:12;94100.97;;;11.22;100.00
8294;BME280;4185;41.506;24.938;2022-12-18T00:23:40;94101.25;;;11.24;100.00
8294;BME280;4185;41.506;24.938;2022-12-18T00:26:10;94094.47;;;11.14;100.00
8294;BME280;4185;41.506;24.938;2022-12-18T00:28:37;94102.91;;;11.16;100.00
8294;BME280;4185;41.506;24.938;2022-12-18T00:31:06;94102.91;;;11.16;100.00
8294;BME280;4185;41.506;24.938;2022-12-18T00:33:33;94097.91;;;11.15;100.00
8294;BME280;4185;41.506;24.938;2022-12-18T00:36:02;94104.09;;;11.15;100.00
8294;BME280;4185;41.506;24.938;2022-12-18T00:38:29;94107.09;;;11.17;100.00
8294;BME280;4185;41.506;24.938;2022-12-18T00:40:56;94106.63;;;11.19;100.00
8294;BME280;4185;41.506;24.938;2022-12-18T00:43:23;94114.69;;;11.13;100.00
8294;BME280;4185;41.506;24.938;2022-12-18T00:45:48;94119.94;;;11.17;100.00
8294;BME280;4185;41.506;24.938;2022-12-18T00:48:15;94120.31;;;11.24;100.00
8294;BME280;4185;41.506;24.938;2022-12-18T00:50:42;94115.94;;;11.32;100.00
8294;BME280;4185;41.506;24.938;2022-12-18T00:53:10;94125.34;;;11.31;100.00
8294;BME280;4185;41.506;24.938;2022-12-18T00:55:37;94113.91;;;11.27;100.00
8294;BME280;4185;41.506;24.938;2022-12-18T00:58:05;94114.25;;;11.35;100.00
8294;BME280;4185;41.506;24.938;2022-12-18T01:00:32;94127.63;;;11.38;100.00
8294;BME280;4185;41.506;24.938;2022-12-18T01:02:59;94119.75;;;11.40;100.00
8294;BME280;4185;41.506;24.938;2022-12-18T01:05:25;94118.75;;;11.38;100.00
8294;BME280;4185;41.506;24.938;2022-12-18T01:07:53;94125.94;;;11.41;100.00
8294;BME280;4185;41.506;24.938;2022-12-18T01:10:21;94124.91;;;11.38;100.00
8294;BME280;4185;41.506;24.938;2022-12-18T01:12:48;94121.19;;;11.36;100.00
8294;BME280;4185;41.506;24.938;2022-12-18T01:15:15;94122.88;;;11.33;100.00
8294;BME280;4185;41.506;24.938;2022-12-18T01:17:42;94113.50;;;11.34;100.00
8294;BME280;4185;41.506;24.938;2022-12-18T01:20:11;94120.63;;;11.32;100.00
8294;BME280;4185;41.506;24.938;2022-12-18T01:22:38;94119.16;;;11.31;100.00
8294;BME280;4185;41.506;24.938;2022-12-18T01:25:05;94119.81;;;11.26;100.00
8294;BME280;4185;41.506;24.938;2022-12-18T01:27:34;94120.50;;;11.21;100.00
8294;BME280;4185;41.506;24.938;2022-12-18T01:30:01;94127.81;;;11.15;100.00
8294;BME280;4185;41.506;24.938;2022-12-18T01:32:29;94118.94;;;11.14;100.00
8294;BME280;4185;41.506;24.938;2022-12-18T01:34:56;94127.63;;;11.18;100.00
8294;BME280;4185;41.506;24.938;2022-12-18T01:37:23;94129.59;;;11.18;100.00
8294;BME280;4185;41.506;24.938;2022-12-18T01:39:51;94131.56;;;11.17;100.00
8294;BME280;4185;41.506;24.938;2022-12-18T01:42:20;94124.16;;;11.18;100.00
8294;BME280;4185;41.506;24.938;2022-12-18T01:45:00;94131.75;;;11.14;100.00
8294;BME280;4185;41.506;24.938;2022-12-18T01:47:31;94131.00;;;11.13;100.00
8294;BME280;4185;41.506;24.938;2022-12-18T01:50:03;94131.75;;;11.14;100.00
8294;BME280;4185;41.506;24.938;2022-12-18T01:52:31;94133.25;;;11.15;100.00
8294;BME280;4185;41.506;24.938;2022-12-18T01:54:59;94133.25;;;11.15;100.00
8294;BME280;4185;41.506;24.938;2022-12-18T01:57:28;94131.84;;;11.19;100.00
8294;BME280;4185;41.506;24.938;2022-12-18T01:59:59;94127.13;;;11.20;100.00
8294;BME280;4185;41.506;24.938;2022-12-18T02:02:27;94116.41;;;11.11;100.00
8294;BME280;4185;41.506;24.938;2022-12-18T02:04:56;94131.41;;;11.06;100.00
8294;BME280;4185;41.506;24.938;2022-12-18T02:07:32;94126.53;;;11.10;100.00
8294;BME280;4185;41.506;24.938;2022-12-18T02:10:03;94122.03;;;11.07;100.00
8294;BME280;4185;41.506;24.938;2022-12-18T02:12:39;94131.22;;;11.09;100.00
8294;BME280;4185;41.506;24.938;2022-12-18T02:15:15;94129.03;;;11.14;100.00
8294;BME280;4185;41.506;24.938;2022-12-18T02:17:50;94122.19;;;11.18;100.00
8294;BME280;4185;41.506;24.938;2022-12-18T02:20:23;94122.94;;;11.19;100.00
8294;BME280;4185;41.506;24.938;2022-12-18T02:23:06;94123.50;;;11.23;100.00
8294;BME280;4185;41.506;24.938;2022-12-18T02:25:54;94127.22;;;11.25;100.00
8294;BME280;4185;41.506;24.938;2022-12-18T02:28:31;94124.22;;;11.23;100.00
8294;BME280;4185;41.506;24.938;2022-12-18T02:31:01;94131.19;;;11.24;100.00
8294;BME280;4185;41.506;24.938;2022-12-18T02:33:30;94123.78;;;11.25;100.00
8294;BME280;4185;41.506;24.938;2022-12-18T02:35:58;94122.75;;;11.22;100.00
8294;BME280;4185;41.506;24.938;2022-12-18T02:38:27;94120.69;;;11.17;100.00
8294;BME280;4185;41.506;24.938;2022-12-18T02:40:57;94123.69;;;11.19;100.00
8294;BME280;4185;41.506;24.938;2022-12-18T02:43:25;94120.50;;;11.21;100.00
8294;BME280;4185;41.506;24.938;2022-12-18T02:45:54;94129.84;;;11.20;100.00
8294;BME280;4185;41.506;24.938;2022-12-18T02:48:24;94128.84;;;11.17;100.00
8294;BME280;4185;41.506;24.938;2022-12-18T02:50:56;94130.75;;;11.11;100.00
8294;BME280;4185;41.506;24.938;2022-12-18T02:53:28;94126.03;;;11.12;100.00
8294;BME280;4185;41.506;24.938;2022-12-18T02:56:05;94124.66;;;11.16;100.00
8294;BME280;4185;41.506;24.938;2022-12-18T02:58:40;94131.38;;;11.21;100.00
8294;BME280;4185;41.506;24.938;2022-12-18T03:01:15;94135.28;;;11.20;100.00
8294;BME280;4185;41.506;24.938;2022-12-18T03:03:47;94137.56;;;11.21;100.00
8294;BME280;4185;41.506;24.938;2022-12-18T03:06:21;94134.66;;;11.25;100.00
8294;BME280;4185;41.506;24.938;2022-12-18T03:08:52;94125.25;;;11.26;100.00
8294;BME280;4185;41.506;24.938;2022-12-18T03:11:23;94139.63;;;11.26;100.00
8294;BME280;4185;41.506;24.938;2022-12-18T03:14:06;94145.44;;;11.19;100.00
8294;BME280;4185;41.506;24.938;2022-12-18T03:16:34;94145.16;;;11.17;100.00
8294;BME280;4185;41.506;24.938;2022-12-18T03:19:05;94143.19;;;11.18;100.00
8294;BME280;4185;41.506;24.938;2022-12-18T03:21:35;94145.44;;;11.19;100.00
8294;BME280;4185;41.506;24.938;2022-12-18T03:24:06;94147.97;;;11.23;100.00
8294;BME280;4185;41.506;24.938;2022-12-18T03:26:36;94142.81;;;11.25;100.00
8294;BME280;4185;41.506;24.938;2022-12-18T03:29:09;94152.66;;;11.22;100.00
8294;BME280;4185;41.506;24.938;2022-12-18T03:31:37;94146.84;;;11.15;100.00
8294;BME280;4185;41.506;24.938;2022-12-18T03:34:09;94151.56;;;11.14;100.00
8294;BME280;4185;41.506;24.938;2022-12-18T03:36:39;94152.03;;;11.13;100.00
8294;BME280;4185;41.506;24.938;2022-12-18T03:39:06;94157.00;;;11.14;100.00
8294;BME280;4185;41.506;24.938;2022-12-18T03:41:42;94158.19;;;11.13;100.00
8294;BME280;4185;41.506;24.938;2022-12-18T03:44:12;94164.31;;;11.08;100.00
8294;BME280;4185;41.506;24.938;2022-12-18T03:46:47;94161.59;;;11.08;100.00
8294;BME280;4185;41.506;24.938;2022-12-18T03:49:23;94170.97;;;11.07;100.00
8294;BME280;4185;41.506;24.938;2022-12-18T03:51:57;94170.97;;;11.07;100.00
8294;BME280;4185;41.506;24.938;2022-12-18T03:54:28;94169.00;;;11.07;100.00
8294;BME280;4185;41.506;24.938;2022-12-18T03:57:00;94165.72;;;11.03;100.00
8294;BME280;4185;41.506;24.938;2022-12-18T03:59:30;94167.16;;;10.99;100.00
8294;BME280;4185;41.506;24.938;2022-12-18T04:01:58;94176.03;;;10.99;100.00
8294;BME280;4185;41.506;24.938;2022-12-18T04:04:27;94177.56;;;11.00;100.00
8294;BME280;4185;41.506;24.938;2022-12-18T04:06:55;94179.50;;;11.00;100.00
8294;BME280;4185;41.506;24.938;2022-12-18T04:09:24;94178.28;;;11.01;100.00
8294;BME280;4185;41.506;24.938;2022-12-18T04:11:51;94182.50;;;11.02;100.00
8294;BME280;4185;41.506;24.938;2022-12-18T04:14:19;94195.53;;;10.98;100.00
8294;BME280;4185;41.506;24.938;2022-12-18T04:16:46;94187.56;;;10.94;100.00
8294;BME280;4185;41.506;24.938;2022-12-18T04:19:13;94197.06;;;10.99;100.00
8294;BME280;4185;41.506;24.938;2022-12-18T04:21:40;94197.88;;;11.05;100.00
8294;BME280;4185;41.506;24.938;2022-12-18T04:24:07;94197.22;;;11.10;100.00
8294;BME280;4185;41.506;24.938;2022-12-18T04:26:34;94196.25;;;11.13;100.00
8294;BME280;4185;41.506;24.938;2022-12-18T04:29:01;94195.59;;;11.18;100.00
8294;BME280;4185;41.506;24.938;2022-12-18T04:31:29;94201.97;;;11.15;100.00
8294;BME280;4185;41.506;24.938;2022-12-18T04:33:56;94196.25;;;11.13;100.00
8294;BME280;4185;41.506;24.938;2022-12-18T04:36:23;94200.03;;;11.16;100.00
8294;BME280;4185;41.506;24.938;2022-12-18T04:38:49;94200.50;;;11.14;100.00
8294;BME280;4185;41.506;24.938;2022-12-18T04:41:16;94206.66;;;11.15;100.00
8294;BME280;4185;41.506;24.938;2022-12-18T04:43:43;94198.97;;;11.13;100.00
8294;BME280;4185;41.506;24.938;2022-12-18T04:46:10;94211.09;;;11.12;100.00
8294;BME280;4185;41.506;24.938;2022-12-18T04:48:38;94214.09;;;11.14;100.00
8294;BME280;4185;41.506;24.938;2022-12-18T04:51:05;94214.47;;;11.07;100.00
8294;BME280;4185;41.506;24.938;2022-12-18T04:53:32;94218.81;;;10.99;100.00
8294;BME280;4185;41.506;24.938;2022-12-18T04:56:04;94230.16;;;10.97;100.00
8294;BME280;4185;41.506;24.938;2022-12-18T04:58:31;94226.28;;;10.89;100.00
8294;BME280;4185;41.506;24.938;2022-12-18T05:00:58;94226.00;;;10.87;100.00
8294;BME280;4185;41.506;24.938;2022-12-18T05:03:25;94228.94;;;10.84;100.00
8294;BME280;4185;41.506;24.938;2022-12-18T05:05:53;94221.97;;;10.83;100.00
8294;BME280;4185;41.506;24.938;2022-12-18T05:08:20;94230.44;;;10.85;100.00
8294;BME280;4185;41.506;24.938;2022-12-18T05:10:47;94228.72;;;10.87;100.00
8294;BME280;4185;41.506;24.938;2022-12-18T05:13:13;94241.88;;;10.89;100.00
8294;BME280;4185;41.506;24.938;2022-12-18T05:15:40;94234.91;;;10.88;100.00
8294;BME280;4185;41.506;24.938;2022-12-18T05:18:08;94242.06;;;10.85;100.00
8294;BME280;4185;41.506;24.938;2022-12-18T05:20:35;94241.84;;;10.74;100.00
8294;BME280;4185;41.506;24.938;2022-12-18T05:23:03;94244.84;;;10.76;100.00
8294;BME280;4185;41.506;24.938;2022-12-18T05:25:30;94259.47;;;10.79;100.00
8294;BME280;4185;41.506;24.938;2022-12-18T05:27:56;94254.78;;;10.79;100.00
8294;BME280;4185;41.506;24.938;2022-12-18T05:30:23;94264.16;;;10.78;100.00
8294;BME280;4185;41.506;24.938;2022-12-18T05:32:50;94266.41;;;10.80;100.00
8294;BME280;4185;41.506;24.938;2022-12-18T05:35:17;94268.56;;;10.76;100.00
8294;BME280;4185;41.506;24.938;2022-12-18T05:37:44;94252.06;;;10.65;100.00
8294;BME280;4185;41.506;24.938;2022-12-18T05:40:12;94271.09;;;10.79;100.00
8294;BME280;4185;41.506;24.938;2022-12-18T05:42:39;94278.50;;;10.79;100.00
8294;BME280;4185;41.506;24.938;2022-12-18T05:45:06;94278.03;;;10.80;100.00
8294;BME280;4185;41.506;24.938;2022-12-18T05:47:34;94276.06;;;10.81;100.00
8294;BME280;4185;41.506;24.938;2022-12-18T05:50:00;94275.56;;;10.82;100.00
8294;BME280;4185;41.506;24.938;2022-12-18T05:52:27;94282.72;;;10.80;100.00
8294;BME280;4185;41.506;24.938;2022-12-18T05:54:54;94290.47;;;10.72;100.00
8294;BME280;4185;41.506;24.938;2022-12-18T05:57:22;94296.00;;;10.63;100.00
8294;BME280;4185;41.506;24.938;2022-12-18T05:59:49;94290.75;;;10.60;100.00
8294;BME280;4185;41.506;24.938;2022-12-18T06:02:16;94298.91;;;10.60;100.00
8294;BME280;4185;41.506;24.938;2022-12-18T06:04:42;94305.81;;;10.61;100.00
8294;BME280;4185;41.506;24.938;2022-12-18T06:07:09;94311.25;;;10.61;100.00
8294;BME280;4185;41.506;24.938;2022-12-18T06:09:36;94319.41;;;10.61;100.00
8294;BME280;4185;41.506;24.938;2022-12-18T06:12:03;94327.56;;;10.61;100.00
8294;BME280;4185;41.506;24.938;2022-12-18T06:14:31;94329.81;;;10.62;100.00
8294;BME280;4185;41.506;24.938;2022-12-18T06:16:58;94331.63;;;10.65;100.00
8294;BME280;4185;41.506;24.938;2022-12-18T06:19:25;94341.53;;;10.68;100.00
8294;BME280;4185;41.506;24.938;2022-12-18T06:21:52;94336.84;;;10.69;100.00
8294;BME280;4185;41.506;24.938;2022-12-18T06:24:18;94332.75;;;10.73;100.00
8294;BME280;4185;41.506;24.938;2022-12-18T06:26:45;94339.78;;;10.80;100.00
8294;BME280;4185;41.506;24.938;2022-12-18T06:29:12;94342.03;;;10.81;100.00
8294;BME280;4185;41.506;24.938;2022-12-18T06:31:40;94337.66;;;10.84;100.00
8294;BME280;4185;41.506;24.938;2022-12-18T06:34:07;94345.16;;;10.89;100.00
8294;BME280;4185;41.506;24.938;2022-12-18T06:36:34;94355.06;;;10.92;100.00
8294;BME280;4185;41.506;24.938;2022-12-18T06:39:00;94354.63;;;10.93;100.00
8294;BME280;4185;41.506;24.938;2022-12-18T06:41:27;94356.56;;;10.93;100.00
8294;BME280;4185;41.506;24.938;2022-12-18T06:43:54;94354.91;;;10.95;100.00
8294;BME280;4185;41.506;24.938;2022-12-18T06:46:21;94361.81;;;10.96;100.00
8294;BME280;4185;41.506;24.938;2022-12-18T06:48:50;94369.81;;;11.00;100.00
8294;BME280;4185;41.506;24.938;2022-12-18T06:51:18;94361.34;;;10.98;100.00
8294;BME280;4185;41.506;24.938;2022-12-18T06:53:46;94369.81;;;11.00;100.00
8294;BME280;4185;41.506;24.938;2022-12-18T06:56:12;94364.66;;;11.02;100.00
8294;BME280;4185;41.506;24.938;2022-12-18T06:58:39;94372.06;;;11.01;100.00
8294;BME280;4185;41.506;24.938;2022-12-18T07:01:08;94379.19;;;10.99;100.00
8294;BME280;4185;41.506;24.938;2022-12-18T07:03:35;94374.66;;;10.96;100.00
8294;BME280;4185;41.506;24.938;2022-12-18T07:06:04;94385.81;;;10.98;100.00
8294;BME280;4185;41.506;24.938;2022-12-18T07:08:32;94392.03;;;10.98;100.00
8294;BME280;4185;41.506;24.938;2022-12-18T07:10:59;94380.09;;;10.96;100.00
8294;BME280;4185;41.506;24.938;2022-12-18T07:13:25;94385.81;;;10.98;100.00
8294;BME280;4185;41.506;24.938;2022-12-18T07:15:52;94401.19;;;11.01;100.00
8294;BME280;4185;41.506;24.938;2022-12-18T07:18:19;94389.88;;;11.02;100.00
8294;BME280;4185;41.506;24.938;2022-12-18T07:20:46;94390.31;;;11.01;100.00
8294;BME280;4185;41.506;24.938;2022-12-18T07:23:14;94396.81;;;11.03;100.00
8294;BME280;4185;41.506;24.938;2022-12-18T07:25:41;94392.38;;;11.06;100.00
8294;BME280;4185;41.506;24.938;2022-12-18T07:28:07;94393.91;;;11.07;100.00
8294;BME280;4185;41.506;24.938;2022-12-18T07:30:37;94397.81;;;11.06;100.00
8294;BME280;4185;41.506;24.938;2022-12-18T07:33:03;94404.31;;;11.08;100.00
8294;BME280;4185;41.506;24.938;2022-12-18T07:35:30;94393.91;;;11.07;100.00
8294;BME280;4185;41.506;24.938;2022-12-18T07:37:57;94396.63;;;11.07;100.00
8294;BME280;4185;41.506;24.938;2022-12-18T07:40:25;94406.28;;;11.08;100.00
8294;BME280;4185;41.506;24.938;2022-12-18T07:42:52;94410.81;;;11.11;100.00
8294;BME280;4185;41.506;24.938;2022-12-18T07:45:19;94413.53;;;11.11;100.00
8294;BME280;4185;41.506;24.938;2022-12-18T07:47:46;94410.81;;;11.11;100.00
8294;BME280;4185;41.506;24.938;2022-12-18T07:50:12;94413.22;;;11.09;100.00
8294;BME280;4185;41.506;24.938;2022-12-18T07:52:39;94421.09;;;11.07;100.00
8294;BME280;4185;41.506;24.938;2022-12-18T07:55:07;94412.00;;;11.10;100.00
8294;BME280;4185;41.506;24.938;2022-12-18T07:57:35;94417.16;;;11.08;100.00
8294;BME280;4185;41.506;24.938;2022-12-18T08:00:02;94426.53;;;11.07;100.00
8294;BME280;4185;41.506;24.938;2022-12-18T08:02:30;94423.53;;;11.05;100.00
8294;BME280;4185;41.506;24.938;2022-12-18T08:04:57;94422.03;;;11.04;100.00
8294;BME280;4185;41.506;24.938;2022-12-18T08:07:24;94422.28;;;11.06;100.00
8294;BME280;4185;41.506;24.938;2022-12-18T08:09:51;94422.03;;;11.04;100.00
8294;BME280;4185;41.506;24.938;2022-12-18T08:12:18;94432.16;;;11.03;100.00
8294;BME280;4185;41.506;24.938;2022-12-18T08:14:46;94429.91;;;11.02;100.00
8294;BME280;4185;41.506;24.938;2022-12-18T08:17:13;94434.75;;;10.98;100.00
8294;BME280;4185;41.506;24.938;2022-12-18T08:19:39;94438.41;;;10.95;100.00
8294;BME280;4185;41.506;24.938;2022-12-18T08:22:06;94435.22;;;10.96;100.00
8294;BME280;4185;41.506;24.938;2022-12-18T08:24:33;94433.91;;;10.92;100.00
8294;BME280;4185;41.506;24.938;2022-12-18T08:27:00;94452.00;;;10.95;100.00
8294;BME280;4185;41.506;24.938;2022-12-18T08:29:27;94442.44;;;10.99;100.00
8294;BME280;4185;41.506;24.938;2022-12-18T08:31:55;94445.91;;;11.00;100.00
8294;BME280;4185;41.506;24.938;2022-12-18T08:34:21;94452.13;;;11.00;100.00
8294;BME280;4185;41.506;24.938;2022-12-18T08:36:48;94441.31;;;11.06;100.00
8294;BME280;4185;41.506;24.938;2022-12-18T08:39:15;94450.94;;;11.16;100.00
8294;BME280;4185;41.506;24.938;2022-12-18T08:41:42;94441.66;;;11.23;100.00
8294;BME280;4185;41.506;24.938;2022-12-18T08:44:29;94449.63;;;11.26;100.00
8294;BME280;4185;41.506;24.938;2022-12-18T08:47:05;94450.19;;;11.30;100.00
8294;BME280;4185;41.506;24.938;2022-12-18T08:49:32;94447.00;;;11.32;100.00
8294;BME280;4185;41.506;24.938;2022-12-18T08:51:59;94446.81;;;11.35;100.00
8294;BME280;4185;41.506;24.938;2022-12-18T08:54:27;94445.16;;;11.38;100.00
8294;BME280;4185;41.506;24.938;2022-12-18T08:56:53;94441.19;;;11.39;100.00
8294;BME280;4185;41.506;24.938;2022-12-18T08:59:20;94439.53;;;11.41;100.00
8294;BME280;4185;41.506;24.938;2022-12-18T09:01:48;94437.09;;;11.43;100.00
8294;BME280;4185;41.506;24.938;2022-12-18T09:04:16;94444.03;;;11.44;100.00
8294;BME280;4185;41.506;24.938;2022-12-18T09:06:43;94436.16;;;11.46;100.00
8294;BME280;4185;41.506;24.938;2022-12-18T09:09:10;94420.84;;;11.34;100.00
8294;BME280;4185;41.506;24.938;2022-12-18T09:11:37;94440.66;;;11.49;100.00
8294;BME280;4185;41.506;24.938;2022-12-18T09:14:04;94429.88;;;11.55;100.00
8294;BME280;4185;41.506;24.938;2022-12-18T09:16:31;94425.44;;;11.57;100.00
8294;BME280;4185;41.506;24.938;2022-12-18T09:19:02;94433.91;;;11.59;100.00
8294;BME280;4185;41.506;24.938;2022-12-18T09:21:32;94433.91;;;11.59;100.00
8294;BME280;4185;41.506;24.938;2022-12-18T09:23:59;94427.88;;;11.55;100.00
8294;BME280;4185;41.506;24.938;2022-12-18T09:26:27;94427.88;;;11.55;100.00
8294;BME280;4185;41.506;24.938;2022-12-18T09:28:53;94416.81;;;11.44;100.00
8294;BME280;4185;41.506;24.938;2022-12-18T09:31:22;94428.06;;;11.52;100.00
8294;BME280;4185;41.506;24.938;2022-12-18T09:33:50;94427.63;;;11.53;100.00
8294;BME280;4185;41.506;24.938;2022-12-18T09:36:17;94427.63;;;11.53;100.00
8294;BME280;4185;41.506;24.938;2022-12-18T09:38:46;94432.66;;;11.60;100.00
8294;BME280;4185;41.506;24.938;2022-12-18T09:41:29;94425.25;;;11.61;100.00
8294;BME280;4185;41.506;24.938;2022-12-18T09:44:01;94425.75;;;11.59;100.00
8294;BME280;4185;41.506;24.938;2022-12-18T09:46:32;94429.31;;;11.65;100.00
8294;BME280;4185;41.506;24.938;2022-12-18T09:49:03;94418.00;;;11.67;100.00
8294;BME280;4185;41.506;24.938;2022-12-18T09:51:37;94422.97;;;11.68;100.00
8294;BME280;4185;41.506;24.938;2022-12-18T09:54:12;94411.78;;;11.66;100.00
8294;BME280;4185;41.506;24.938;2022-12-18T09:56:42;94420.44;;;11.65;100.00
8294;BME280;4185;41.506;24.938;2022-12-18T09:59:18;94415.81;;;11.71;100.00
8294;BME280;4185;41.506;24.938;2022-12-18T10:01:46;94409.34;;;11.68;100.00
8294;BME280;4185;41.506;24.938;2022-12-18T10:04:13;94413.84;;;11.71;100.00
8294;BME280;4185;41.506;24.938;2022-12-18T10:06:46;94409.16;;;11.72;100.00
8294;BME280;4185;41.506;24.938;2022-12-18T10:09:23;94411.22;;;11.77;100.00
8294;BME280;4185;41.506;24.938;2022-12-18T10:12:00;94413.47;;;11.78;100.00
8294;BME280;4185;41.506;24.938;2022-12-18T10:14:34;94404.25;;;11.76;100.00
8294;BME280;4185;41.506;24.938;2022-12-18T10:17:10;94403.78;;;11.77;100.00
8294;BME280;4185;41.506;24.938;2022-12-18T10:19:44;94398.91;;;11.81;100.00
8294;BME280;4185;41.506;24.938;2022-12-18T10:22:33;94411.03;;;11.80;100.00
8294;BME280;4185;41.506;24.938;2022-12-18T10:25:15;94408.31;;;11.80;100.00
8294;BME280;4185;41.506;24.938;2022-12-18T10:27:44;94408.56;;;11.82;100.00
8294;BME280;4185;41.506;24.938;2022-12-18T10:30:13;94417.50;;;11.83;100.00
8294;BME280;4185;41.506;24.938;2022-12-18T10:32:40;94417.03;;;11.84;100.00
8294;BME280;4185;41.506;24.938;2022-12-18T10:35:14;94414.78;;;11.83;100.00
8294;BME280;4185;41.506;24.938;2022-12-18T10:38:05;94409.13;;;11.86;100.00
8294;BME280;4185;41.506;24.938;2022-12-18T10:40:47;94417.41;;;11.92;100.00
8294;BME280;4185;41.506;24.938;2022-12-18T10:43:16;94422.38;;;11.93;100.00
8294;BME280;4185;41.506;24.938;2022-12-18T10:45:59;94419.66;;;11.93;100.00
8294;BME280;4185;41.506;24.938;2022-12-18T10:48:27;94411.47;;;11.93;100.00
8294;BME280;4185;41.506;24.938;2022-12-18T10:50:54;94420.47;;;11.99;100.00
8294;BME280;4185;41.506;24.938;2022-12-18T10:53:22;94422.00;;;12.00;100.00
8294;BME280;4185;41.506;24.938;2022-12-18T10:55:52;94419.28;;;12.00;100.00
8294;BME280;4185;41.506;24.938;2022-12-18T10:58:24;94415.03;;;11.99;100.00
8294;BME280;4185;41.506;24.938;2022-12-18T11:01:06;94418.13;;;11.92;100.00
8294;BME280;4185;41.506;24.938;2022-12-18T11:03:35;94422.09;;;11.91;100.00
8294;BME280;4185;41.506;24.938;2022-12-18T11:06:06;94418.34;;;11.89;100.00
8294;BME280;4185;41.506;24.938;2022-12-18T11:08:33;94412.16;;;11.88;100.00
8294;BME280;4185;41.506;24.938;2022-12-18T11:11:01;94412.44;;;11.90;100.00
8294;BME280;4185;41.506;24.938;2022-12-18T11:13:30;94410.72;;;11.93;100.00
8294;BME280;4185;41.506;24.938;2022-12-18T11:15:58;94411.75;;;11.95;100.00
8294;BME280;4185;41.506;24.938;2022-12-18T11:18:28;94410.53;;;11.96;100.00
8294;BME280;4185;41.506;24.938;2022-12-18T11:20:58;94408.38;;;12.00;100.00
8294;BME280;4185;41.506;24.938;2022-12-18T11:23:26;94403.66;;;12.01;100.00
8294;BME280;4185;41.506;24.938;2022-12-18T11:25:56;94414.84;;;12.03;100.00
8294;BME280;4185;41.506;24.938;2022-12-18T11:28:35;94417.38;;;12.06;100.00
8294;BME280;4185;41.506;24.938;2022-12-18T11:31:19;94410.16;;;12.03;100.00
8294;BME280;4185;41.506;24.938;2022-12-18T11:33:53;94412.31;;;11.99;100.00
8294;BME280;4185;41.506;24.938;2022-12-18T11:36:21;94417.94;;;11.96;100.00
8294;BME280;4185;41.506;24.938;2022-12-18T11:38:50;94424.53;;;11.89;100.00
8294;BME280;4185;41.506;24.938;2022-12-18T11:41:23;94420.97;;;11.83;100.00
8294;BME280;4185;41.506;24.938;2022-12-18T11:44:21;94422.59;;;11.75;100.00
8294;BME280;4185;41.506;24.938;2022-12-18T11:46:55;94423.59;;;11.78;100.00
8294;BME280;4185;41.506;24.938;2022-12-18T11:49:26;94416.19;;;11.78;100.00
8294;BME280;4185;41.506;24.938;2022-12-18T11:51:58;94429.81;;;11.78;100.00
8294;BME280;4185;41.506;24.938;2022-12-18T11:54:27;94425.94;;;11.70;100.00
8294;BME280;4185;41.506;24.938;2022-12-18T11:56:58;94420.97;;;11.69;100.00
8294;BME280;4185;41.506;24.938;2022-12-18T11:59:33;94422.50;;;11.70;100.00
8294;BME280;4185;41.506;24.938;2022-12-18T12:02:16;94428.66;;;11.70;100.00
8294;BME280;4185;41.506;24.938;2022-12-18T12:05:05;94417.22;;;11.66;100.00
8294;BME280;4185;41.506;24.938;2022-12-18T12:07:46;94421.91;;;11.66;100.00
8294;BME280;4185;41.506;24.938;2022-12-18T12:10:25;94419.66;;;11.64;100.00
8294;BME280;4185;41.506;24.938;2022-12-18T12:13:06;94409.59;;;11.56;100.00
8294;BME280;4185;41.506;24.938;2022-12-18T12:15:44;94421.34;;;11.62;100.00
8294;BME280;4185;41.506;24.938;2022-12-18T12:18:23;94429.03;;;11.63;100.00
8294;BME280;4185;41.506;24.938;2022-12-18T12:21:03;94429.78;;;11.64;100.00
8294;BME280;4185;41.506;24.938;2022-12-18T12:23:39;94413.44;;;11.49;100.00
8294;BME280;4185;41.506;24.938;2022-12-18T12:26:11;94429.94;;;11.60;100.00
8294;BME280;4185;41.506;24.938;2022-12-18T12:28:55;94439.00;;;11.66;100.00
8294;BME280;4185;41.506;24.938;2022-12-18T12:31:37;94432.16;;;11.71;100.00
8294;BME280;4185;41.506;24.938;2022-12-18T12:34:16;94440.13;;;11.74;100.00
8294;BME280;4185;41.506;24.938;2022-12-18T12:36:57;94425.03;;;11.73;100.00
8294;BME280;4185;41.506;24.938;2022-12-18T12:39:30;94439.19;;;11.77;100.00
8294;BME280;4185;41.506;24.938;2022-12-18T12:41:59;94436.94;;;11.76;100.00
8294;BME280;4185;41.506;24.938;2022-12-18T12:44:48;94438.16;;;11.75;100.00
8294;BME280;4185;41.506;24.938;2022-12-18T12:47:23;94443.69;;;11.80;100.00
8294;BME280;4185;41.506;24.938;2022-12-18T12:49:52;94449.69;;;11.84;100.00
8294;BME280;4185;41.506;24.938;2022-12-18T12:52:27;94446.69;;;11.82;100.00
8294;BME280;4185;41.506;24.938;2022-12-18T12:54:55;94442.94;;;11.80;100.00
8294;BME280;4185;41.506;24.938;2022-12-18T12:57:30;94449.22;;;11.71;100.00
8294;BME280;4185;41.506;24.938;2022-12-18T13:00:01;94463.78;;;11.68;100.00
8294;BME280;4185;41.506;24.938;2022-12-18T13:02:34;94454.56;;;11.66;100.00
8294;BME280;4185;41.506;24.938;2022-12-18T13:05:06;94458.69;;;11.61;100.00
8294;BME280;4185;41.506;24.938;2022-12-18T13:07:40;94467.72;;;11.67;100.00
8294;BME280;4185;41.506;24.938;2022-12-18T13:10:28;94467.72;;;11.67;100.00
8294;BME280;4185;41.506;24.938;2022-12-18T13:12:59;94471.72;;;11.57;100.00
8294;BME280;4185;41.506;24.938;2022-12-18T13:15:30;94473.22;;;11.58;100.00